createdAt,value
2019-02-18T00:03:19.997Z,-0.9
2019-02-18T00:08:16.555Z,-1.1
2019-02-18T00:13:13.155Z,-1.1
2019-02-18T00:18:09.638Z,-1.8
2019-02-18T00:23:06.092Z,-1.6
2019-02-18T00:28:02.603Z,-1.1
2019-02-18T00:32:59.212Z,-1.9
2019-02-18T00:37:55.597Z,-1.9
2019-02-18T00:42:51.983Z,-2
2019-02-18T00:47:48.621Z,-1.5
2019-02-18T00:52:45.494Z,-1.5
2019-02-18T00:57:41.975Z,-2.1
2019-02-18T01:02:38.859Z,-2.1
2019-02-18T01:07:35.437Z,-2.1
2019-02-18T01:12:32.063Z,-2.2
2019-02-18T01:17:28.773Z,-2.2
2019-02-18T01:22:25.467Z,-1.6
2019-02-18T01:27:21.885Z,-2.3
2019-02-18T01:32:18.355Z,-2.3
2019-02-18T01:37:14.948Z,-2.5
2019-02-18T01:42:11.243Z,-2
2019-02-18T01:47:07.788Z,-2.7
2019-02-18T01:52:04.421Z,-2.7
2019-02-18T01:57:00.964Z,-2.1
2019-02-18T02:01:57.459Z,-3
2019-02-18T02:06:54.046Z,-2.9
2019-02-18T02:11:50.777Z,-2.8
2019-02-18T02:16:46.887Z,-2.9
2019-02-18T02:21:42.631Z,-3
2019-02-18T02:26:39.180Z,-2.9
2019-02-18T02:31:35.700Z,-3
2019-02-18T02:36:32.299Z,-3.1
2019-02-18T02:41:28.992Z,-3.1
2019-02-18T02:46:25.561Z,-3
2019-02-18T02:51:22.069Z,-3
2019-02-18T02:56:18.570Z,-3.1
2019-02-18T03:01:15.233Z,-3.2
2019-02-18T03:06:11.628Z,-3.1
2019-02-18T03:11:08.375Z,-3.3
2019-02-18T03:16:05.004Z,-3.2
2019-02-18T03:21:00.833Z,-3.1
2019-02-18T03:25:56.809Z,-3.3
2019-02-18T03:30:53.000Z,-3.3
2019-02-18T03:35:49.416Z,-3.3
2019-02-18T03:40:46.119Z,-2.9
2019-02-18T03:45:42.645Z,-3.7
2019-02-18T03:50:38.952Z,-3.5
2019-02-18T03:55:34.776Z,-3.2
2019-02-18T04:00:31.379Z,-3.7
2019-02-18T04:05:27.697Z,-3
2019-02-18T04:10:24.291Z,-3.6
2019-02-18T04:15:20.267Z,-3
2019-02-18T04:20:16.681Z,-3.7
2019-02-18T04:25:12.977Z,-3.8
2019-02-18T04:30:09.863Z,-4
2019-02-18T04:35:06.510Z,-3.6
2019-02-18T04:40:03.051Z,-3.9
2019-02-18T04:44:59.823Z,-4.1
2019-02-18T04:49:56.767Z,-4.1
2019-02-18T04:54:53.592Z,-4
2019-02-18T04:59:50.317Z,-4
2019-02-18T05:04:47.070Z,-4
2019-02-18T05:09:43.567Z,-4.2
2019-02-18T05:14:39.905Z,-4.3
2019-02-18T05:19:36.537Z,-4.4
2019-02-18T05:24:33.240Z,-4.3
2019-02-18T05:29:29.793Z,-4.1
2019-02-18T05:34:26.314Z,-4.2
2019-02-18T05:39:22.839Z,-4.2
2019-02-18T05:44:19.547Z,-4
2019-02-18T05:49:16.135Z,-3.7
2019-02-18T05:54:12.788Z,-3.7
2019-02-18T05:59:09.421Z,-3.6
2019-02-18T06:04:06.182Z,-3.6
2019-02-18T06:09:02.490Z,-3.5
2019-02-18T06:14:02.204Z,-3.3
2019-02-18T06:19:00.648Z,-2.7
2019-02-18T06:23:58.058Z,-1.8
2019-02-18T06:28:55.449Z,-1
2019-02-18T06:33:52.594Z,-0.5
2019-02-18T06:38:49.002Z,-0.4
2019-02-18T06:43:45.657Z,-0.7
2019-02-18T06:48:42.487Z,-0.2
2019-02-18T06:53:38.957Z,-0.2
2019-02-18T06:58:35.492Z,0
2019-02-18T07:03:32.540Z,0.2
2019-02-18T07:08:29.384Z,0.6
2019-02-18T07:13:26.465Z,0.8
2019-02-18T07:18:23.112Z,0.9
2019-02-18T07:23:19.232Z,1.1
2019-02-18T07:28:15.877Z,0.9
2019-02-18T07:33:12.514Z,1.2
2019-02-18T07:38:08.996Z,1
2019-02-18T07:43:05.952Z,1.6
2019-02-18T07:48:03.110Z,2.2
2019-02-18T07:52:59.862Z,2.3
2019-02-18T07:57:56.359Z,2.5
2019-02-18T08:02:53.095Z,1.7
2019-02-18T08:07:50.364Z,3.3
2019-02-18T08:12:47.179Z,2.7
2019-02-18T08:17:44.108Z,3
2019-02-18T08:22:40.551Z,3.7
2019-02-18T08:27:37.500Z,3.7
2019-02-18T08:32:34.084Z,4.1
2019-02-18T08:37:31.230Z,4.8
2019-02-18T08:42:27.799Z,4.8
2019-02-18T08:47:24.956Z,5.1
2019-02-18T08:52:21.440Z,5
2019-02-18T08:57:18.648Z,5.6
2019-02-18T09:02:15.649Z,5.9
2019-02-18T09:07:12.818Z,6.2
2019-02-18T09:17:11.540Z,6.7
2019-02-18T09:22:08.559Z,7.3
2019-02-18T09:27:05.409Z,7.3
2019-02-18T09:32:02.276Z,7.7
2019-02-18T09:36:58.849Z,7.8
2019-02-18T09:41:55.313Z,8.3
2019-02-18T09:46:51.101Z,7.5
2019-02-18T09:51:47.799Z,8.4
2019-02-18T09:56:44.244Z,8.7
2019-02-18T10:01:43.110Z,8.9
2019-02-18T10:06:40.277Z,8.6
2019-02-18T10:11:37.027Z,9.2
2019-02-18T10:16:33.773Z,9.8
2019-02-18T10:21:30.240Z,9.7
2019-02-18T10:26:27.147Z,9.6
2019-02-18T10:31:24.147Z,10.4
2019-02-18T10:36:20.767Z,10.3
2019-02-18T10:41:19.253Z,10.8
2019-02-18T10:46:15.368Z,10.4
2019-02-18T10:51:12.987Z,11.5
2019-02-18T10:56:09.228Z,11.3
2019-02-18T11:01:06.258Z,11
2019-02-18T11:06:03.326Z,11.6
2019-02-18T11:10:59.823Z,11.2
2019-02-18T11:15:56.161Z,11.1
2019-02-18T11:20:53.003Z,11.7
2019-02-18T11:25:48.968Z,11.9
2019-02-18T11:30:46.271Z,12.4
2019-02-18T11:35:43.311Z,11.7
2019-02-18T11:40:39.760Z,11.9
2019-02-18T11:45:36.314Z,12.1
2019-02-18T11:50:32.668Z,12.1
2019-02-18T11:55:28.518Z,12.5
2019-02-18T12:00:25.082Z,12.9
2019-02-18T12:05:21.267Z,12.1
2019-02-18T12:10:18.457Z,12.2
2019-02-18T12:15:14.500Z,13.4
2019-02-18T12:20:11.922Z,12.7
2019-02-18T12:25:08.375Z,12.6
2019-02-18T12:30:04.460Z,12.6
2019-02-18T12:35:01.216Z,12.5
2019-02-18T12:39:57.531Z,12.5
2019-02-18T12:44:54.151Z,13
2019-02-18T12:49:51.123Z,12.8
2019-02-18T12:54:47.587Z,12.8
2019-02-18T12:59:44.571Z,13.2
2019-02-18T13:04:42.318Z,12.9
2019-02-18T13:09:39.163Z,13
2019-02-18T13:14:35.754Z,12.9
2019-02-18T13:19:32.200Z,13.1
2019-02-18T13:24:29.707Z,13.9
2019-02-18T13:29:25.625Z,13.3
2019-02-18T13:34:22.010Z,13.2
2019-02-18T13:39:19.230Z,13.9
2019-02-18T13:44:16.116Z,13.4
2019-02-18T13:49:12.689Z,13.2
2019-02-18T13:54:09.616Z,13.2
2019-02-18T13:59:06.288Z,13
2019-02-18T14:04:02.999Z,13.1
2019-02-18T14:08:59.709Z,12.9
2019-02-18T14:13:56.469Z,12.9
2019-02-18T14:18:53.332Z,12.9
2019-02-18T14:23:50.097Z,12.5
2019-02-18T14:28:46.482Z,12.1
2019-02-18T14:33:42.626Z,12.3
2019-02-18T14:38:38.859Z,11.8
2019-02-18T14:43:35.337Z,11.1
2019-02-18T14:48:32.099Z,11
2019-02-18T14:53:28.656Z,10.5
2019-02-18T14:58:24.549Z,10
2019-02-18T15:23:39.211Z,8.3
2019-02-18T15:28:35.737Z,8.1
2019-02-18T15:33:31.769Z,7.9
2019-02-18T15:38:28.335Z,7.7
2019-02-18T15:43:25.248Z,7.4
2019-02-18T15:48:21.721Z,7.2
2019-02-18T15:53:17.994Z,7
2019-02-18T15:58:13.960Z,6.8
2019-02-18T16:03:10.647Z,6.5
2019-02-18T16:08:07.136Z,6.4
2019-02-18T16:13:02.647Z,6.2
2019-02-18T16:17:59.137Z,6.1
2019-02-18T16:22:55.677Z,5.9
2019-02-18T16:27:52.147Z,5.8
2019-02-18T16:32:49.404Z,5.7
2019-02-18T16:37:45.759Z,5.7
2019-02-18T16:42:42.423Z,5.4
2019-02-18T16:47:38.577Z,5.4
2019-02-18T16:52:35.522Z,5.8
2019-02-18T16:57:32.368Z,6.2
2019-02-18T17:02:28.420Z,6
2019-02-18T17:07:25.911Z,7.6
2019-02-18T17:12:23.213Z,8
2019-02-18T17:17:19.893Z,8.2
2019-02-18T17:22:16.276Z,7.1
2019-02-18T17:27:12.439Z,6.7
2019-02-18T17:32:09.013Z,6.7
2019-02-18T17:37:05.998Z,6.4
2019-02-18T17:42:02.519Z,5.9
2019-02-18T17:46:58.647Z,5.8
2019-02-18T17:51:54.963Z,5.4
2019-02-18T17:56:51.461Z,5.2
2019-02-18T18:01:48.049Z,4.6
2019-02-18T18:06:44.747Z,5.1
2019-02-18T18:11:41.224Z,4.8
2019-02-18T18:16:37.879Z,4.6
2019-02-18T18:21:34.421Z,4.5
2019-02-18T18:26:31.488Z,3.7
2019-02-18T18:31:27.355Z,4.1
2019-02-18T18:36:23.610Z,3.9
2019-02-18T18:41:20.224Z,3.8
2019-02-18T18:46:16.770Z,3.6
2019-02-18T18:51:13.594Z,3.6
2019-02-18T18:56:10.298Z,3.5
2019-02-18T19:01:06.714Z,3.2
2019-02-18T19:06:03.566Z,2.9
2019-02-18T19:11:00.272Z,3.3
2019-02-18T19:15:56.868Z,3.2
2019-02-18T19:20:53.588Z,3
2019-02-18T19:25:50.196Z,2.9
2019-02-18T19:30:46.799Z,2.8
2019-02-18T19:35:43.023Z,2.7
2019-02-18T19:40:40.009Z,2.6
2019-02-18T19:45:36.998Z,2.6
2019-02-18T19:50:33.728Z,2.6
2019-02-18T19:55:30.294Z,2.5
2019-02-18T20:00:27.454Z,2.3
2019-02-18T20:05:23.897Z,2.3
2019-02-18T20:10:20.221Z,1.9
2019-02-18T20:15:16.311Z,2.3
2019-02-18T20:20:12.182Z,2
2019-02-18T20:25:08.720Z,2
2019-02-18T20:30:05.969Z,1.3
2019-02-18T20:35:02.253Z,1.8
2019-02-18T20:39:59.125Z,1
2019-02-18T20:44:55.206Z,1.6
2019-02-18T20:49:51.932Z,1
2019-02-18T20:54:47.869Z,0.9
2019-02-18T20:59:44.542Z,1.6
2019-02-18T21:04:41.407Z,1.6
2019-02-18T21:09:38.108Z,1
2019-02-18T21:14:34.361Z,1.4
2019-02-18T21:19:31.342Z,1.3
2019-02-18T21:24:27.775Z,1.1
2019-02-18T21:29:23.871Z,1
2019-02-18T21:34:20.245Z,0.9
2019-02-18T21:39:16.825Z,0.1
2019-02-18T21:44:13.024Z,-0.1
2019-02-18T21:49:09.807Z,0.7
2019-02-18T21:54:06.447Z,0
2019-02-18T21:59:03.092Z,0.1
2019-02-18T22:03:59.567Z,0
2019-02-18T22:08:56.334Z,0.6
2019-02-18T22:13:52.854Z,-0.1
2019-02-18T22:18:49.229Z,0.6
2019-02-18T22:23:45.929Z,0.5
2019-02-18T22:28:42.365Z,-0.3
2019-02-18T22:33:38.869Z,-0.4
2019-02-18T22:38:35.489Z,0.3
2019-02-18T22:43:32.571Z,-0.4
2019-02-18T22:48:29.220Z,-0.3
2019-02-18T22:53:25.541Z,-0.5
2019-02-18T22:58:22.128Z,-0.6
2019-02-18T23:03:18.800Z,-0.1
2019-02-18T23:08:15.236Z,-0.8
2019-02-18T23:13:11.160Z,-1.1
2019-02-18T23:18:08.102Z,-0.9
2019-02-18T23:23:04.687Z,-0.9
2019-02-18T23:28:00.886Z,-0.9
2019-02-18T23:32:57.487Z,-1
2019-02-18T23:37:53.962Z,-0.9
2019-02-18T23:42:50.542Z,-1
2019-02-18T23:47:46.967Z,-0.4
2019-02-18T23:52:43.689Z,-1
2019-02-18T23:57:40.168Z,-0.5
